createdAt,value
2023-04-05T00:01:40.486Z,3.70
2023-04-05T00:04:08.866Z,3.78
2023-04-05T00:06:35.620Z,3.67
2023-04-05T00:09:03.513Z,3.55
2023-04-05T00:11:31.777Z,3.70
2023-04-05T00:13:59.663Z,3.47
2023-04-05T00:16:27.929Z,3.72
2023-04-05T00:18:56.127Z,3.42
2023-04-05T00:21:24.991Z,3.33
2023-04-05T00:23:53.217Z,3.88
2023-04-05T00:26:20.651Z,3.85
2023-04-05T00:28:47.649Z,4.35
2023-04-05T00:31:14.596Z,3.58
2023-04-05T00:33:41.463Z,4.10
2023-04-05T00:36:09.561Z,3.65
2023-04-05T00:38:37.753Z,3.05
2023-04-05T00:41:04.549Z,4.07
2023-04-05T00:43:31.404Z,3.58
2023-04-05T00:45:58.183Z,3.78
2023-04-05T00:48:25.370Z,4.50
2023-04-05T00:50:52.870Z,4.15
2023-04-05T00:53:20.681Z,4.30
2023-04-05T00:55:49.378Z,4.10
2023-04-05T00:58:16.805Z,3.33
2023-04-05T01:00:51.262Z,3.03
2023-04-05T01:03:18.984Z,3.85
2023-04-05T01:05:49.357Z,3.90
2023-04-05T01:08:21.850Z,3.63
2023-04-05T01:10:57.029Z,4.07
2023-04-05T01:13:25.300Z,4.40
2023-04-05T01:15:52.490Z,3.95
2023-04-05T01:18:19.469Z,3.67
2023-04-05T01:20:50.997Z,4.05
2023-04-05T01:23:28.506Z,3.88
2023-04-05T01:26:26.727Z,3.28
2023-04-05T01:29:10.902Z,3.10
2023-04-05T01:31:45.819Z,4.18
2023-04-05T01:34:19.743Z,3.03
2023-04-05T01:39:31.000Z,2.78
2023-04-05T01:41:59.110Z,3.55
2023-04-05T01:44:25.930Z,3.83
2023-04-05T01:46:54.065Z,3.35
2023-04-05T01:49:21.175Z,4.03
2023-04-05T01:51:47.926Z,4.03
2023-04-05T01:54:14.781Z,3.40
2023-04-05T01:56:41.555Z,3.45
2023-04-05T01:59:08.352Z,4.07
2023-04-05T02:01:35.110Z,3.25
2023-04-05T02:04:03.217Z,4.68
2023-04-05T02:06:30.024Z,3.80
2023-04-05T02:08:56.770Z,3.90
2023-04-05T02:11:23.631Z,3.97
2023-04-05T02:13:50.376Z,3.65
2023-04-05T02:16:17.098Z,3.75
2023-04-05T02:18:43.990Z,4.25
2023-04-05T02:21:12.028Z,4.03
2023-04-05T02:23:38.919Z,3.47
2023-04-05T02:26:05.732Z,3.45
2023-04-05T02:28:32.461Z,3.92
2023-04-05T02:30:59.162Z,3.47
2023-04-05T02:33:25.921Z,3.38
2023-04-05T02:35:53.537Z,3.53
2023-04-05T02:38:21.609Z,3.72
2023-04-05T02:40:49.172Z,3.42
2023-04-05T02:43:16.055Z,4.15
2023-04-05T02:45:43.912Z,3.85
2023-04-05T02:48:12.290Z,3.75
2023-04-05T02:50:39.202Z,3.65
2023-04-05T02:53:06.183Z,3.80
2023-04-05T02:55:34.252Z,3.58
2023-04-05T02:58:01.112Z,3.78
2023-04-05T03:00:27.968Z,3.78
2023-04-05T03:02:55.262Z,3.75
2023-04-05T03:05:21.994Z,4.13
2023-04-05T03:07:48.741Z,3.42
2023-04-05T03:10:15.727Z,3.25
2023-04-05T03:12:43.833Z,4.15
2023-04-05T03:15:11.102Z,4.03
2023-04-05T03:17:37.842Z,4.10
2023-04-05T03:20:05.728Z,4.28
2023-04-05T03:22:32.537Z,4.68
2023-04-05T03:24:59.321Z,4.15
2023-04-05T03:27:26.169Z,4.43
2023-04-05T03:29:54.389Z,4.80
2023-04-05T03:32:21.235Z,4.35
2023-04-05T03:34:47.980Z,5.07
2023-04-05T03:37:14.710Z,4.88
2023-04-05T03:39:41.489Z,4.93
2023-04-05T03:42:08.186Z,4.60
2023-04-05T03:44:34.932Z,5.00
2023-04-05T03:47:03.080Z,4.78
2023-04-05T03:49:29.997Z,4.43
2023-04-05T03:51:56.731Z,4.25
2023-04-05T03:54:23.490Z,4.32
2023-04-05T03:56:50.277Z,4.57
2023-04-05T03:59:17.056Z,4.22
2023-04-05T04:01:43.878Z,4.63
2023-04-05T04:04:12.209Z,3.97
2023-04-05T04:06:39.067Z,4.57
2023-04-05T04:09:05.875Z,3.70
2023-04-05T04:11:32.625Z,4.90
2023-04-05T04:13:59.332Z,4.53
2023-04-05T04:16:28.231Z,4.38
2023-04-05T04:18:55.613Z,4.07
2023-04-05T04:21:23.881Z,4.25
2023-04-05T04:23:50.830Z,3.75
2023-04-05T04:26:17.771Z,4.40
2023-04-05T04:28:44.633Z,5.90
2023-04-05T04:31:12.470Z,5.13
2023-04-05T04:33:39.204Z,5.18
2023-04-05T04:36:08.159Z,5.30
2023-04-05T04:38:36.409Z,5.78
2023-04-05T04:41:06.834Z,5.30
2023-04-05T04:43:33.624Z,5.13
2023-04-05T04:46:00.339Z,5.00
2023-04-05T04:48:27.148Z,4.68
2023-04-05T04:50:53.896Z,3.90
2023-04-05T04:53:22.797Z,4.78
2023-04-05T04:55:52.087Z,4.25
2023-04-05T04:58:18.961Z,4.20
2023-04-05T05:00:45.749Z,4.35
2023-04-05T05:03:13.089Z,5.28
2023-04-05T05:05:43.761Z,4.88
2023-04-05T05:08:10.593Z,5.13
2023-04-05T05:10:37.407Z,5.05
2023-04-05T05:13:05.576Z,4.78
2023-04-05T05:15:32.331Z,3.95
2023-04-05T05:17:59.094Z,4.60
2023-04-05T05:20:26.091Z,4.95
2023-04-05T05:22:52.891Z,4.65
2023-04-05T05:25:19.786Z,4.28
2023-04-05T05:27:48.758Z,4.57
2023-04-05T05:30:16.961Z,3.83
2023-04-05T05:32:43.819Z,5.15
2023-04-05T05:35:10.643Z,4.53
2023-04-05T05:37:37.465Z,3.28
2023-04-05T05:40:04.935Z,3.83
2023-04-05T05:42:31.855Z,4.43
2023-04-05T05:45:02.445Z,4.25
2023-04-05T05:47:30.569Z,4.78
2023-04-05T05:49:57.380Z,4.72
2023-04-05T05:52:24.285Z,4.65
2023-04-05T05:54:51.000Z,4.55
2023-04-05T05:57:17.729Z,5.18
2023-04-05T05:59:44.639Z,4.03
2023-04-05T06:02:11.527Z,5.50
2023-04-05T06:04:39.709Z,6.47
2023-04-05T06:07:06.618Z,3.88
2023-04-05T06:09:33.500Z,5.55
2023-04-05T06:12:00.224Z,4.32
2023-04-05T06:14:27.254Z,4.75
2023-04-05T06:16:53.947Z,4.13
2023-04-05T06:19:20.644Z,4.55
2023-04-05T06:21:48.702Z,5.13
2023-04-05T06:24:15.570Z,4.18
2023-04-05T06:26:42.334Z,4.65
2023-04-05T06:29:09.104Z,4.35
2023-04-05T06:31:36.298Z,3.65
2023-04-05T06:34:03.355Z,3.03
2023-04-05T06:36:30.665Z,3.42
2023-04-05T06:38:58.757Z,3.83
2023-04-05T06:41:25.618Z,3.85
2023-04-05T06:43:52.376Z,3.50
2023-04-05T06:46:19.181Z,4.05
2023-04-05T06:48:45.951Z,3.33
2023-04-05T06:51:12.660Z,3.45
2023-04-05T06:53:39.388Z,3.80
2023-04-05T06:56:08.306Z,3.25
2023-04-05T06:58:35.147Z,3.05
2023-04-05T07:01:02.133Z,3.42
2023-04-05T07:03:29.159Z,3.35
2023-04-05T07:05:57.574Z,3.13
2023-04-05T07:08:24.734Z,3.40
2023-04-05T07:10:52.405Z,3.30
2023-04-05T07:13:22.567Z,3.05
2023-04-05T07:15:49.382Z,2.63
2023-04-05T07:18:16.209Z,3.58
2023-04-05T07:20:43.564Z,2.90
2023-04-05T07:23:10.348Z,2.83
2023-04-05T07:25:39.436Z,3.42
2023-04-05T07:28:06.214Z,3.15
2023-04-05T07:30:34.315Z,3.00
2023-04-05T07:33:01.050Z,3.25
2023-04-05T07:35:27.799Z,3.08
2023-04-05T07:37:54.546Z,3.40
2023-04-05T07:40:21.402Z,3.20
2023-04-05T07:42:48.173Z,3.10
2023-04-05T07:45:14.989Z,2.90
2023-04-05T07:47:43.087Z,3.05
2023-04-05T07:50:10.780Z,2.75
2023-04-05T07:52:37.569Z,3.28
2023-04-05T07:55:05.008Z,2.83
2023-04-05T07:57:31.703Z,2.60
2023-04-05T07:59:58.427Z,3.30
2023-04-05T08:02:25.284Z,2.85
2023-04-05T08:04:53.376Z,3.00
2023-04-05T08:07:20.104Z,3.35
2023-04-05T08:09:46.835Z,2.80
2023-04-05T08:12:13.644Z,3.30
2023-04-05T08:14:40.348Z,2.65
2023-04-05T08:17:07.062Z,2.75
2023-04-05T08:19:33.780Z,2.60
2023-04-05T08:22:01.848Z,2.92
2023-04-05T08:24:28.609Z,3.15
2023-04-05T08:26:55.381Z,3.00
2023-04-05T08:29:22.147Z,2.58
2023-04-05T08:31:49.009Z,2.90
2023-04-05T08:34:15.878Z,2.70
2023-04-05T08:36:42.638Z,3.38
2023-04-05T08:39:10.727Z,2.15
2023-04-05T08:41:45.166Z,3.15
2023-04-05T08:44:12.484Z,3.28
2023-04-05T08:46:39.344Z,2.95
2023-04-05T08:49:07.675Z,3.10
2023-04-05T08:51:36.989Z,2.78
2023-04-05T08:54:03.911Z,2.90
2023-04-05T08:56:34.260Z,3.13
2023-04-05T08:59:03.332Z,3.65
2023-04-05T09:01:31.351Z,3.30
2023-04-05T09:04:01.389Z,3.90
2023-04-05T09:06:28.385Z,3.20
2023-04-05T09:08:57.413Z,2.88
2023-04-05T09:11:24.606Z,3.38
2023-04-05T09:13:52.781Z,3.05
2023-04-05T09:16:20.266Z,3.00
2023-04-05T09:18:47.182Z,3.00
2023-04-05T09:21:13.885Z,3.60
2023-04-05T09:23:52.626Z,2.85
2023-04-05T09:26:20.023Z,3.25
2023-04-05T09:28:46.745Z,2.90
2023-04-05T09:31:34.030Z,3.20
2023-04-05T09:34:02.881Z,3.15
2023-04-05T09:36:29.777Z,2.70
2023-04-05T09:39:05.479Z,3.13
2023-04-05T09:41:32.403Z,2.95
2023-04-05T09:43:59.180Z,3.05
2023-04-05T09:46:30.757Z,3.45
2023-04-05T09:48:58.939Z,3.33
2023-04-05T09:51:32.989Z,2.85
2023-04-05T09:56:28.940Z,3.33
2023-04-05T09:58:59.437Z,2.70
2023-04-05T10:01:27.476Z,3.50
2023-04-05T10:03:54.454Z,3.17
2023-04-05T10:06:22.654Z,3.78
2023-04-05T10:08:51.376Z,3.35
2023-04-05T10:11:18.839Z,2.70
2023-04-05T10:13:49.011Z,3.40
2023-04-05T10:16:20.757Z,3.35
2023-04-05T10:18:51.072Z,3.00
2023-04-05T10:21:23.429Z,3.15
2023-04-05T10:23:57.728Z,3.30
2023-04-05T10:26:34.015Z,3.38
2023-04-05T10:29:08.864Z,3.30
2023-04-05T10:31:42.674Z,2.78
2023-04-05T10:34:17.223Z,3.40
2023-04-05T10:36:50.471Z,3.03
2023-04-05T10:39:22.868Z,3.40
2023-04-05T10:41:53.532Z,3.38
2023-04-05T10:44:26.176Z,4.10
2023-04-05T10:46:55.096Z,3.30
2023-04-05T10:49:27.229Z,3.58
2023-04-05T10:51:56.184Z,3.17
2023-04-05T10:54:23.546Z,3.83
2023-04-05T10:56:50.782Z,3.45
2023-04-05T10:59:18.422Z,4.20
2023-04-05T11:01:46.345Z,3.20
2023-04-05T11:04:14.094Z,3.42
2023-04-05T11:06:41.182Z,3.70
2023-04-05T11:09:14.644Z,2.67
2023-04-05T11:11:43.328Z,3.30
2023-04-05T11:14:23.389Z,3.05
2023-04-05T11:16:51.705Z,3.38
2023-04-05T11:19:18.646Z,3.47
2023-04-05T11:21:45.727Z,3.50
2023-04-05T11:24:14.871Z,3.30
2023-04-05T11:26:55.153Z,3.90
2023-04-05T11:29:47.178Z,3.15
2023-04-05T11:32:13.905Z,3.53
2023-04-05T11:34:42.670Z,3.58
2023-04-05T11:37:09.539Z,3.85
2023-04-05T11:39:37.922Z,3.10
2023-04-05T11:42:05.786Z,3.38
2023-04-05T11:44:44.189Z,3.55
2023-04-05T11:47:11.093Z,3.90
2023-04-05T11:49:38.493Z,4.50
2023-04-05T11:52:14.017Z,3.45
2023-04-05T11:54:42.827Z,3.38
2023-04-05T11:57:12.515Z,3.50
2023-04-05T11:59:40.732Z,2.58
2023-04-05T12:02:09.296Z,3.33
2023-04-05T12:04:36.644Z,3.00
2023-04-05T12:07:17.146Z,3.20
2023-04-05T12:10:03.260Z,2.88
2023-04-05T12:12:34.176Z,2.90
2023-04-05T12:15:01.560Z,3.20
2023-04-05T12:17:38.825Z,3.28
2023-04-05T12:20:07.222Z,3.28
2023-04-05T12:22:34.701Z,3.30
2023-04-05T12:25:03.147Z,3.28
2023-04-05T12:27:30.110Z,3.83
2023-04-05T12:30:16.472Z,2.75
2023-04-05T12:32:47.501Z,3.13
2023-04-05T12:35:17.020Z,2.95
2023-04-05T12:37:44.094Z,2.78
2023-04-05T12:40:13.483Z,2.97
2023-04-05T12:42:41.081Z,3.13
2023-04-05T12:45:12.710Z,2.28
2023-04-05T12:47:56.209Z,3.17
2023-04-05T12:50:27.569Z,3.10
2023-04-05T12:52:58.750Z,2.58
2023-04-05T12:55:27.905Z,3.40
2023-04-05T12:57:56.455Z,3.63
2023-04-05T13:00:23.283Z,3.15
2023-04-05T13:02:50.820Z,2.63
2023-04-05T13:05:19.308Z,2.97
2023-04-05T13:07:46.035Z,2.67
2023-04-05T13:10:12.993Z,2.95
2023-04-05T13:12:41.056Z,3.15
2023-04-05T13:15:08.926Z,3.38
2023-04-05T13:17:35.728Z,2.70
2023-04-05T13:20:02.739Z,3.45
2023-04-05T13:22:29.487Z,2.97
2023-04-05T13:24:56.214Z,2.38
2023-04-05T13:27:22.963Z,3.08
2023-04-05T13:29:51.082Z,2.88
2023-04-05T13:32:17.823Z,3.00
2023-04-05T13:34:44.558Z,3.00
2023-04-05T13:37:11.291Z,2.67
2023-04-05T13:39:38.011Z,2.97
2023-04-05T13:42:05.000Z,3.42
2023-04-05T13:44:31.744Z,3.63
2023-04-05T13:47:00.013Z,2.92
2023-04-05T13:49:26.759Z,2.80
2023-04-05T13:51:53.646Z,3.25
2023-04-05T13:54:20.449Z,3.10
2023-04-05T13:56:47.203Z,3.63
2023-04-05T13:59:14.033Z,3.25
2023-04-05T14:01:40.906Z,3.55
2023-04-05T14:04:09.406Z,3.22
2023-04-05T14:06:36.137Z,2.67
2023-04-05T14:09:03.200Z,2.97
2023-04-05T14:11:30.034Z,3.30
2023-04-05T14:13:57.033Z,3.38
2023-04-05T14:16:24.107Z,2.75
2023-04-05T14:18:50.882Z,2.53
2023-04-05T14:21:19.037Z,2.90
2023-04-05T14:23:46.615Z,3.15
2023-04-05T14:26:13.365Z,3.78
2023-04-05T14:28:40.098Z,2.92
2023-04-05T14:31:06.893Z,2.53
2023-04-05T14:33:33.628Z,3.50
2023-04-05T14:36:00.413Z,3.40
2023-04-05T14:38:28.536Z,3.15
2023-04-05T14:40:55.543Z,3.50
2023-04-05T14:43:23.767Z,3.50
2023-04-05T14:45:50.553Z,3.20
2023-04-05T14:48:17.303Z,4.30
2023-04-05T14:50:44.066Z,2.75
2023-04-05T14:53:10.816Z,3.22
2023-04-05T14:55:40.668Z,2.90
2023-04-05T14:58:07.777Z,3.03
2023-04-05T15:00:34.760Z,3.30
2023-04-05T15:03:01.680Z,3.63
2023-04-05T15:05:28.474Z,3.40
2023-04-05T15:07:55.199Z,3.42
2023-04-05T15:10:21.977Z,3.13
2023-04-05T15:12:50.305Z,3.47
2023-04-05T15:15:17.297Z,2.95
2023-04-05T15:17:44.142Z,3.80
2023-04-05T15:20:11.397Z,3.28
2023-04-05T15:22:38.314Z,3.30
2023-04-05T15:25:05.968Z,2.50
2023-04-05T15:27:32.723Z,2.70
2023-04-05T15:30:00.852Z,2.95
2023-04-05T15:32:27.667Z,2.75
2023-04-05T15:34:54.452Z,3.28
2023-04-05T15:37:21.176Z,2.97
2023-04-05T15:39:47.958Z,3.13
2023-04-05T15:42:14.675Z,2.83
2023-04-05T15:44:41.441Z,3.30
2023-04-05T15:47:09.561Z,2.75
2023-04-05T15:49:36.349Z,2.72
2023-04-05T15:52:03.134Z,2.80
2023-04-05T15:54:29.850Z,2.95
2023-04-05T15:56:57.327Z,3.08
2023-04-05T15:59:24.272Z,3.17
2023-04-05T16:01:51.117Z,2.75
2023-04-05T16:04:19.468Z,3.30
2023-04-05T16:06:46.473Z,3.22
2023-04-05T16:09:13.375Z,3.10
2023-04-05T16:11:40.169Z,4.00
2023-04-05T16:14:07.265Z,2.80
2023-04-05T16:16:42.080Z,3.05
2023-04-05T16:19:21.328Z,3.03
2023-04-05T16:21:48.147Z,3.08
2023-04-05T16:24:14.872Z,2.90
2023-04-05T16:26:41.630Z,3.38
2023-04-05T16:29:08.323Z,3.38
2023-04-05T16:31:35.104Z,3.00
2023-04-05T16:34:01.828Z,3.05
2023-04-05T16:36:30.006Z,2.80
2023-04-05T16:38:56.733Z,3.45
2023-04-05T16:41:23.650Z,2.88
2023-04-05T16:43:51.727Z,3.22
2023-04-05T16:46:18.610Z,3.22
2023-04-05T16:48:45.619Z,3.30
2023-04-05T16:51:12.681Z,2.90
2023-04-05T16:53:40.788Z,2.67
2023-04-05T16:56:07.585Z,3.10
2023-04-05T16:58:34.333Z,2.85
2023-04-05T17:01:01.279Z,2.72
2023-04-05T17:03:28.163Z,3.10
2023-04-05T17:05:54.973Z,3.38
2023-04-05T17:08:21.755Z,2.88
2023-04-05T17:10:50.316Z,3.15
2023-04-05T17:13:18.109Z,3.33
2023-04-05T17:15:44.982Z,3.50
2023-04-05T17:18:11.955Z,3.13
2023-04-05T17:20:38.764Z,2.85
2023-04-05T17:23:05.521Z,2.78
2023-04-05T17:25:32.265Z,3.17
2023-04-05T17:28:00.343Z,3.75
2023-04-05T17:30:27.086Z,2.97
2023-04-05T17:32:53.855Z,2.92
2023-04-05T17:35:20.702Z,2.80
2023-04-05T17:37:47.471Z,4.35
2023-04-05T17:40:15.220Z,3.80
2023-04-05T17:42:42.040Z,3.78
2023-04-05T17:45:10.797Z,4.05
2023-04-05T17:47:37.787Z,3.15
2023-04-05T17:50:05.327Z,4.57
2023-04-05T17:52:32.046Z,5.63
2023-04-05T17:54:58.788Z,6.38
2023-04-05T17:57:25.566Z,4.80
2023-04-05T17:59:52.334Z,4.25
2023-04-05T18:02:20.471Z,3.83
2023-04-05T18:04:47.311Z,3.80
2023-04-05T18:07:14.028Z,3.15
2023-04-05T18:09:41.191Z,3.70
2023-04-05T18:12:08.521Z,3.03
2023-04-05T18:14:35.774Z,2.60
2023-04-05T18:17:04.487Z,2.75
2023-04-05T18:19:32.796Z,2.97
2023-04-05T18:21:59.694Z,4.07
2023-04-05T18:24:26.621Z,3.53
2023-04-05T18:26:53.546Z,4.93
2023-04-05T18:29:20.515Z,4.35
2023-04-05T18:31:47.448Z,4.40
2023-04-05T18:34:14.489Z,4.18
2023-04-05T18:36:42.811Z,3.28
2023-04-05T18:39:09.970Z,4.10
2023-04-05T18:41:36.970Z,4.55
2023-04-05T18:44:03.856Z,3.22
2023-04-05T18:46:30.913Z,3.45
2023-04-05T18:48:57.973Z,3.13
2023-04-05T18:51:25.627Z,2.75
2023-04-05T18:53:54.136Z,3.00
2023-04-05T18:56:21.235Z,3.83
2023-04-05T18:58:48.455Z,3.05
2023-04-05T19:01:15.499Z,3.10
2023-04-05T19:03:42.511Z,3.22
2023-04-05T19:06:09.536Z,3.10
2023-04-05T19:08:36.722Z,2.40
2023-04-05T19:11:05.999Z,3.22
2023-04-05T19:13:32.794Z,3.28
2023-04-05T19:16:00.300Z,2.92
2023-04-05T19:18:27.037Z,3.38
2023-04-05T19:20:54.502Z,3.08
2023-04-05T19:23:21.681Z,3.05
2023-04-05T19:25:48.394Z,2.83
2023-04-05T19:28:16.894Z,3.13
2023-04-05T19:30:43.809Z,3.40
2023-04-05T19:33:10.656Z,3.85
2023-04-05T19:35:37.426Z,3.80
2023-04-05T19:38:04.639Z,3.83
2023-04-05T19:40:32.009Z,3.70
2023-04-05T19:42:59.439Z,3.53
2023-04-05T19:45:29.482Z,3.28
2023-04-05T19:47:57.832Z,3.20
2023-04-05T19:50:48.064Z,3.53
2023-04-05T19:53:39.134Z,3.63
2023-04-05T19:56:09.935Z,3.75
2023-04-05T19:58:36.772Z,3.20
2023-04-05T20:01:06.450Z,3.88
2023-04-05T20:03:34.520Z,3.30
2023-04-05T20:06:06.861Z,3.00
2023-04-05T20:08:35.482Z,3.00
2023-04-05T20:11:06.399Z,3.47
2023-04-05T20:13:38.693Z,3.60
2023-04-05T20:16:06.888Z,3.70
2023-04-05T20:18:33.827Z,3.03
2023-04-05T20:21:00.665Z,3.55
2023-04-05T20:23:29.294Z,3.47
2023-04-05T20:25:56.275Z,3.28
2023-04-05T20:28:35.706Z,3.00
2023-04-05T20:31:02.835Z,3.40
2023-04-05T20:33:41.112Z,3.38
2023-04-05T20:36:08.492Z,2.95
2023-04-05T20:38:35.823Z,3.17
2023-04-05T20:41:02.565Z,2.97
2023-04-05T20:43:31.438Z,3.20
2023-04-05T20:45:58.654Z,3.38
2023-04-05T20:48:25.381Z,3.78
2023-04-05T20:50:53.448Z,3.58
2023-04-05T20:53:20.309Z,3.25
2023-04-05T20:55:47.189Z,4.07
2023-04-05T20:58:13.945Z,3.70
2023-04-05T21:00:40.654Z,3.95
2023-04-05T21:03:07.834Z,4.18
2023-04-05T21:05:34.654Z,4.32
2023-04-05T21:08:02.732Z,4.43
2023-04-05T21:10:29.639Z,4.22
2023-04-05T21:12:56.365Z,4.32
2023-04-05T21:15:23.611Z,3.58
2023-04-05T21:17:50.404Z,4.03
2023-04-05T21:20:17.135Z,4.13
2023-04-05T21:22:43.833Z,4.38
2023-04-05T21:25:11.905Z,4.75
2023-04-05T21:27:38.781Z,4.43
2023-04-05T21:30:06.630Z,3.83
2023-04-05T21:32:33.335Z,4.07
2023-04-05T21:35:00.158Z,4.22
2023-04-05T21:37:26.940Z,3.85
2023-04-05T21:39:53.664Z,4.30
2023-04-05T21:42:21.903Z,4.43
2023-04-05T21:44:48.604Z,3.28
2023-04-05T21:47:15.304Z,3.88
2023-04-05T21:49:42.026Z,3.63
2023-04-05T21:52:08.756Z,3.75
2023-04-05T21:54:35.475Z,3.83
2023-04-05T21:57:02.284Z,4.00
2023-04-05T21:59:30.421Z,4.82
2023-04-05T22:01:57.293Z,5.40
2023-04-05T22:04:25.990Z,4.78
2023-04-05T22:06:53.195Z,4.45
2023-04-05T22:09:19.899Z,4.00
2023-04-05T22:11:46.797Z,4.45
2023-04-05T22:14:13.531Z,4.30
2023-04-05T22:16:41.906Z,4.15
2023-04-05T22:19:09.181Z,5.28
2023-04-05T22:21:36.116Z,4.18
2023-04-05T22:24:02.875Z,4.72
2023-04-05T22:26:29.601Z,5.30
2023-04-05T22:28:56.412Z,4.95
2023-04-05T22:31:23.199Z,5.07
2023-04-05T22:33:51.315Z,5.53
2023-04-05T22:36:18.077Z,6.93
2023-04-05T22:38:44.875Z,7.88
2023-04-05T22:41:11.592Z,7.75
2023-04-05T22:43:38.356Z,7.22
2023-04-05T22:46:05.221Z,7.70
2023-04-05T22:48:32.222Z,7.40
2023-04-05T22:51:00.269Z,8.15
2023-04-05T22:53:26.998Z,6.90
2023-04-05T22:55:53.716Z,7.40
2023-04-05T22:58:20.572Z,6.63
2023-04-05T23:00:47.379Z,6.88
2023-04-05T23:03:14.097Z,7.05
2023-04-05T23:05:40.885Z,7.50
2023-04-05T23:08:08.956Z,7.03
2023-04-05T23:10:35.813Z,7.15
2023-04-05T23:13:02.521Z,5.97
2023-04-05T23:15:29.439Z,5.43
2023-04-05T23:17:56.197Z,6.63
2023-04-05T23:20:22.932Z,6.22
2023-04-05T23:22:49.662Z,6.25
2023-04-05T23:25:17.780Z,7.38
2023-04-05T23:27:44.516Z,7.32
2023-04-05T23:30:12.164Z,7.47
2023-04-05T23:32:38.997Z,7.38
2023-04-05T23:35:06.338Z,8.25
2023-04-05T23:37:33.198Z,8.50
2023-04-05T23:39:59.905Z,7.05
2023-04-05T23:42:27.990Z,6.75
2023-04-05T23:44:54.750Z,7.07
2023-04-05T23:47:21.444Z,7.68
2023-04-05T23:49:48.174Z,7.93
2023-04-05T23:52:14.871Z,8.48
2023-04-05T23:54:41.584Z,10.68
2023-04-05T23:57:08.436Z,14.63
2023-04-05T23:59:36.577Z,15.70
